Etusivu
METAR-TAF:

METAR-TAF

Lentoasemat :

Frankfort, Michigan, Yhdysvallat

Leveyspiiri: 44-37-30N, Pituuspiiri: 086-12-02W, korkeus merenpinnasta: 193 m

Tämänhetkinen sää

Tämä raportti tehtiin 29 minuuttia sitten, kello 10.55 UTC
Tuuli 4 kn koillisesta
Lämpötila 6°C
Kosteus 49%
Ilmanpaine 1013 hPa
Näkyvyys: 16.1 km
selkeää

METAR: KFKS 201055Z AUTO 05004KT 10SM CLR 06/M04 A2990 RMK AO2 T00551044

Aika: 07:24 (11:24 UTC)


TAF: puuttuu

Säähavainnot ja -ennusteet yli 4000 lentoasemalta (METAR- ja TAF-raportit).

Käytössä olevat sääasemat on merkitty karttaan keltaisilla ja punaisilla pisteillä.

Aseta hiiri pisteen päälle nähdäksesi sääaseman nimen.

Klikkaa sitten nähdäksesi säähavainnot ja -ennusteet.

Kartan vaihtaminen: klikkaa mustalla rastilla varustettuja vihreitä pisteitä, niin voit zoomata sisään; viivalla varustettua vihreää pistettä, niin voit zoomata ulos tai vihreitä nuolia, niin pääset viereisille kartoille.


METAR-TAF: